Time;durP1;ratioP1;P1;durP2;ratioP2;P2;SDS_P1;SDS_P2;PMS_P1;PMS_P2;Temp;Humidity;BMP_temperature;BMP_pressure;BME280_temperature;BME280_humidity;BME280_pressure;Samples;Min_cycle;Max_cycle;Signal;HPM_P1;HPM_P2
2023/09/18 00:00:57;;;;;;;1.05;0.70;;;;;;;;;;2107098;28;20024;-65
2023/09/18 00:02:16;;;;;;;3.38;0.90;;;;;;;;;;2110171;28;20019;-66
2023/09/18 00:03:35;;;;;;;1.00;0.63;;;;;;;;;;2110737;28;20039;-66
2023/09/18 00:04:54;;;;;;;1.83;0.85;;;;;;;;;;2108733;28;20066;-65
2023/09/18 00:06:13;;;;;;;1.17;0.68;;;;;;;;;;2109143;28;20051;-65
2023/09/18 00:07:32;;;;;;;1.45;0.75;;;;;;;;;;2110477;28;20484;-65
2023/09/18 00:08:52;;;;;;;1.10;0.70;;;;;;;;;;2109262;28;20035;-66
2023/09/18 00:10:11;;;;;;;1.02;0.80;;;;;;;;;;2108604;28;20086;-66
2023/09/18 00:11:30;;;;;;;2.45;1.15;;;;;;;;;;2107913;27;20435;-66
2023/09/18 00:12:49;;;;;;;1.48;0.75;;;;;;;;;;2109166;28;20035;-65
2023/09/18 00:14:09;;;;;;;1.73;0.80;;;;;;;;;;2110738;28;20019;-65
2023/09/18 00:15:28;;;;;;;1.67;0.98;;;;;;;;;;2107955;28;20065;-65
2023/09/18 00:16:48;;;;;;;0.73;0.63;;;;;;;;;;2103692;28;20488;-65
2023/09/18 00:18:07;;;;;;;2.03;0.60;;;;;;;;;;2106133;27;20496;-65
2023/09/18 00:19:26;;;;;;;2.00;0.80;;;;;;;;;;2109693;28;20032;-65
2023/09/18 00:20:48;;;;;;;1.75;0.85;;;;;;;;;;2108406;28;20040;-65
2023/09/18 00:22:07;;;;;;;0.80;0.77;;;;;;;;;;2100705;28;20039;-66
2023/09/18 00:23:26;;;;;;;1.02;0.80;;;;;;;;;;2105208;27;20445;-66
2023/09/18 00:24:45;;;;;;;2.92;0.80;;;;;;;;;;2101298;28;20126;-66
2023/09/18 00:26:04;;;;;;;1.90;1.00;;;;;;;;;;2099619;28;20032;-66
2023/09/18 00:27:24;;;;;;;1.30;0.70;;;;;;;;;;2107626;28;20019;-66
2023/09/18 00:28:42;;;;;;;2.08;1.10;;;;;;;;;;2100003;28;20044;-66
2023/09/18 00:30:03;;;;;;;1.52;0.70;;;;;;;;;;2105983;27;20077;-66
2023/09/18 00:31:22;;;;;;;2.72;1.23;;;;;;;;;;2109684;28;20416;-65
2023/09/18 00:32:41;;;;;;;1.70;0.90;;;;;;;;;;2108861;28;20020;-65
2023/09/18 00:34:00;;;;;;;1.05;0.63;;;;;;;;;;2107002;27;20506;-66
2023/09/18 00:35:19;;;;;;;2.75;0.77;;;;;;;;;;2108401;28;20475;-66
2023/09/18 00:36:38;;;;;;;2.75;0.93;;;;;;;;;;2108434;28;20060;-66
2023/09/18 00:37:57;;;;;;;2.08;0.65;;;;;;;;;;2108223;28;20036;-66
2023/09/18 00:39:16;;;;;;;2.35;0.70;;;;;;;;;;2109416;28;20020;-65
2023/09/18 00:40:35;;;;;;;2.40;1.00;;;;;;;;;;2107391;27;20051;-66
2023/09/18 00:41:54;;;;;;;2.03;0.70;;;;;;;;;;2107426;28;20766;-66
2023/09/18 00:43:13;;;;;;;1.80;0.77;;;;;;;;;;2108499;27;20434;-66
2023/09/18 00:44:32;;;;;;;1.88;0.68;;;;;;;;;;2108204;28;20031;-66
2023/09/18 00:45:51;;;;;;;2.80;0.80;;;;;;;;;;2110455;28;20040;-66
2023/09/18 00:47:10;;;;;;;1.00;0.70;;;;;;;;;;2109010;28;20492;-66
2023/09/18 00:48:29;;;;;;;3.08;0.90;;;;;;;;;;2107800;28;20035;-66
2023/09/18 00:49:50;;;;;;;1.33;0.93;;;;;;;;;;2107785;28;20873;-66
2023/09/18 00:51:10;;;;;;;1.55;0.70;;;;;;;;;;2105687;28;20069;-66
2023/09/18 00:52:29;;;;;;;3.08;1.05;;;;;;;;;;2108447;27;20039;-66
2023/09/18 00:53:48;;;;;;;2.63;0.90;;;;;;;;;;2109046;28;20028;-66
2023/09/18 00:55:08;;;;;;;2.53;1.00;;;;;;;;;;2106230;27;20036;-66
2023/09/18 00:56:26;;;;;;;2.72;1.02;;;;;;;;;;2108380;28;20028;-66
2023/09/18 00:57:46;;;;;;;1.27;1.00;;;;;;;;;;2110568;28;20024;-66
2023/09/18 00:59:05;;;;;;;3.03;0.88;;;;;;;;;;2106006;28;20973;-66
2023/09/18 01:00:24;;;;;;;1.88;0.77;;;;;;;;;;2106811;28;20356;-66
2023/09/18 01:01:43;;;;;;;2.20;0.60;;;;;;;;;;2108665;28;20085;-66
2023/09/18 01:03:03;;;;;;;2.40;0.82;;;;;;;;;;2100557;28;20488;-66
2023/09/18 01:04:25;;;;;;;1.63;0.70;;;;;;;;;;2103647;28;20904;-66
2023/09/18 01:05:47;;;;;;;1.50;0.70;;;;;;;;;;2109669;28;20062;-66
2023/09/18 01:07:06;;;;;;;1.33;0.80;;;;;;;;;;2108641;28;20031;-66
2023/09/18 01:08:25;;;;;;;3.20;1.00;;;;;;;;;;2108840;28;20399;-66
2023/09/18 01:09:44;;;;;;;2.88;1.20;;;;;;;;;;2107189;28;20035;-66
2023/09/18 01:11:29;;;;;;;1.35;1.00;;;;;;;;;;2110519;28;20024;-66
2023/09/18 01:12:48;;;;;;;3.45;1.23;;;;;;;;;;2101776;28;20028;-66
2023/09/18 01:14:13;;;;;;;3.58;1.20;;;;;;;;;;2106968;28;20028;-66
2023/09/18 01:15:37;;;;;;;3.22;1.25;;;;;;;;;;2109591;28;20039;-66
2023/09/18 01:16:56;;;;;;;3.30;1.00;;;;;;;;;;2107343;28;20028;-66
2023/09/18 01:18:16;;;;;;;1.75;1.17;;;;;;;;;;2109720;28;20036;-66
2023/09/18 01:19:39;;;;;;;2.13;0.90;;;;;;;;;;2106603;28;20039;-66
2023/09/18 01:20:58;;;;;;;;;;;;;;;;;;2110506;28;20023;-66
2023/09/18 01:22:19;;;;;;;2.42;1.05;;;;;;;;;;2109991;28;20289;-66
2023/09/18 01:23:38;;;;;;;2.35;0.80;;;;;;;;;;2111023;28;20031;-66
2023/09/18 01:24:57;;;;;;;1.50;1.00;;;;;;;;;;2107583;28;20020;-66
2023/09/18 01:26:16;;;;;;;2.08;1.10;;;;;;;;;;2106941;28;20024;-66
2023/09/18 01:27:35;;;;;;;1.13;0.88;;;;;;;;;;2108235;28;20019;-66
2023/09/18 01:28:54;;;;;;;1.30;1.20;;;;;;;;;;2108115;28;20028;-66
2023/09/18 01:30:13;;;;;;;2.45;0.90;;;;;;;;;;2107217;28;20032;-66
2023/09/18 01:31:32;;;;;;;2.95;1.33;;;;;;;;;;2108152;28;20032;-66
2023/09/18 01:32:51;;;;;;;4.03;1.17;;;;;;;;;;2107430;28;20012;-66
2023/09/18 01:34:10;;;;;;;2.85;1.10;;;;;;;;;;2106753;28;20035;-66
2023/09/18 01:35:29;;;;;;;3.83;1.20;;;;;;;;;;2108689;28;20027;-66
2023/09/18 01:36:49;;;;;;;1.52;0.80;;;;;;;;;;2110131;28;20020;-66
2023/09/18 01:38:10;;;;;;;6.38;1.10;;;;;;;;;;2107031;28;20028;-66
2023/09/18 01:39:31;;;;;;;3.70;0.95;;;;;;;;;;2108451;28;20024;-66
2023/09/18 01:40:53;;;;;;;2.17;1.00;;;;;;;;;;2108875;28;20028;-66
2023/09/18 01:42:12;;;;;;;3.88;1.30;;;;;;;;;;2105896;28;20913;-66
2023/09/18 01:43:31;;;;;;;2.20;1.10;;;;;;;;;;2106857;28;20028;-66
2023/09/18 01:44:51;;;;;;;3.55;1.40;;;;;;;;;;2101142;28;20024;-66
2023/09/18 01:46:11;;;;;;;2.47;1.48;;;;;;;;;;2105897;28;20180;-66
2023/09/18 01:47:29;;;;;;;1.92;1.27;;;;;;;;;;2107371;28;20055;-65
2023/09/18 01:48:48;;;;;;;1.40;1.05;;;;;;;;;;2100106;28;20036;-66
2023/09/18 01:50:08;;;;;;;2.75;1.20;;;;;;;;;;2105620;28;20454;-66
2023/09/18 01:51:27;;;;;;;1.92;1.25;;;;;;;;;;2109146;28;20032;-65
2023/09/18 01:52:47;;;;;;;1.73;1.00;;;;;;;;;;2109499;28;20027;-66
2023/09/18 01:54:06;;;;;;;0.90;0.90;;;;;;;;;;2107229;28;20025;-66
2023/09/18 01:55:24;;;;;;;1.05;0.90;;;;;;;;;;2107517;28;20497;-66
2023/09/18 01:56:43;;;;;;;2.47;1.10;;;;;;;;;;2106529;28;20044;-66
2023/09/18 01:58:02;;;;;;;2.50;0.82;;;;;;;;;;2108577;28;20419;-66
2023/09/18 01:59:22;;;;;;;1.10;1.00;;;;;;;;;;2104964;28;20395;-66
2023/09/18 02:00:41;;;;;;;2.15;0.82;;;;;;;;;;2107950;28;20035;-66
2023/09/18 02:02:01;;;;;;;2.00;1.00;;;;;;;;;;2108692;28;20429;-66
2023/09/18 02:03:21;;;;;;;2.15;0.90;;;;;;;;;;2106718;28;21146;-66
2023/09/18 02:04:40;;;;;;;2.47;0.93;;;;;;;;;;2109734;28;20027;-66
2023/09/18 02:05:59;;;;;;;0.82;0.80;;;;;;;;;;2108323;28;20028;-66
2023/09/18 02:07:18;;;;;;;1.73;0.80;;;;;;;;;;2109795;28;20024;-66
2023/09/18 02:08:37;;;;;;;1.17;1.00;;;;;;;;;;2108778;28;20770;-66
2023/09/18 02:09:56;;;;;;;1.35;1.13;;;;;;;;;;2108008;28;20043;-66
2023/09/18 02:11:15;;;;;;;1.08;0.80;;;;;;;;;;2099016;28;20028;-66
2023/09/18 02:12:34;;;;;;;0.98;0.80;;;;;;;;;;2102669;28;20035;-66
2023/09/18 02:13:53;;;;;;;2.53;0.85;;;;;;;;;;2108364;28;20052;-66
2023/09/18 02:15:12;;;;;;;1.88;1.30;;;;;;;;;;2109423;28;20028;-66
2023/09/18 02:16:35;;;;;;;2.67;0.90;;;;;;;;;;2105684;28;20032;-66
2023/09/18 02:17:54;;;;;;;;;;;;;;;;;;2106596;28;20024;-66
2023/09/18 02:19:13;;;;;;;1.52;0.90;;;;;;;;;;2105498;28;20039;-66
2023/09/18 02:20:40;;;;;;;1.63;0.82;;;;;;;;;;2108176;28;20036;-66
2023/09/18 02:21:59;;;;;;;1.38;0.80;;;;;;;;;;2105645;28;20032;-66
2023/09/18 02:23:19;;;;;;;1.00;0.93;;;;;;;;;;2107188;28;20024;-66
2023/09/18 02:24:38;;;;;;;0.70;0.70;;;;;;;;;;2104257;28;20662;-66
2023/09/18 02:25:57;;;;;;;2.63;0.90;;;;;;;;;;2103537;28;20306;-66
2023/09/18 02:27:18;;;;;;;1.33;0.82;;;;;;;;;;2105837;28;20073;-66
2023/09/18 02:28:37;;;;;;;4.03;1.30;;;;;;;;;;2105215;28;20097;-66
2023/09/18 02:29:56;;;;;;;1.95;0.90;;;;;;;;;;2104450;28;20023;-66
2023/09/18 02:31:16;;;;;;;2.08;1.17;;;;;;;;;;2107211;27;20028;-66
2023/09/18 02:32:36;;;;;;;1.10;0.85;;;;;;;;;;2105047;27;20027;-66
2023/09/18 02:33:55;;;;;;;2.15;0.68;;;;;;;;;;2105743;27;20074;-66
2023/09/18 02:35:14;;;;;;;1.27;0.95;;;;;;;;;;2106893;27;20380;-66
2023/09/18 02:36:33;;;;;;;1.20;1.10;;;;;;;;;;2096212;28;20479;-66
2023/09/18 02:37:52;;;;;;;1.90;0.88;;;;;;;;;;2104263;28;20123;-66
2023/09/18 02:39:11;;;;;;;1.60;0.80;;;;;;;;;;2106290;28;20050;-66
2023/09/18 02:40:30;;;;;;;2.58;0.90;;;;;;;;;;2106639;27;20032;-66
2023/09/18 02:41:49;;;;;;;1.77;1.00;;;;;;;;;;2108593;28;20134;-66
2023/09/18 02:43:08;;;;;;;1.45;1.10;;;;;;;;;;2100343;28;20485;-66
2023/09/18 02:44:27;;;;;;;5.18;1.00;;;;;;;;;;2106126;28;20039;-66
2023/09/18 02:45:46;;;;;;;3.67;0.90;;;;;;;;;;2110221;27;20500;-66
2023/09/18 02:47:04;;;;;;;1.92;1.20;;;;;;;;;;2110328;28;20035;-66
2023/09/18 02:48:23;;;;;;;2.88;0.93;;;;;;;;;;2109254;28;20103;-66
2023/09/18 02:49:42;;;;;;;3.80;1.20;;;;;;;;;;2109909;28;20047;-66
2023/09/18 02:51:02;;;;;;;2.40;0.90;;;;;;;;;;2111783;28;20071;-66
2023/09/18 02:52:21;;;;;;;0.95;0.95;;;;;;;;;;2108253;27;20051;-66
2023/09/18 02:53:40;;;;;;;2.35;1.08;;;;;;;;;;2110112;27;20341;-65
2023/09/18 02:54:59;;;;;;;1.27;1.15;;;;;;;;;;2104208;28;20075;-65
2023/09/18 02:56:18;;;;;;;1.98;1.17;;;;;;;;;;2105807;27;20032;-65
2023/09/18 02:57:37;;;;;;;1.58;1.30;;;;;;;;;;2104084;28;20432;-65
2023/09/18 02:58:56;;;;;;;1.52;1.10;;;;;;;;;;2106219;28;20499;-66
2023/09/18 03:00:16;;;;;;;1.52;1.13;;;;;;;;;;2107297;28;20737;-65
2023/09/18 03:01:35;;;;;;;1.05;0.82;;;;;;;;;;2106482;28;21914;-65
2023/09/18 03:02:54;;;;;;;1.50;1.00;;;;;;;;;;2101917;28;20028;-66
2023/09/18 03:04:12;;;;;;;1.20;1.10;;;;;;;;;;2104413;28;20118;-66
2023/09/18 03:05:31;;;;;;;1.30;1.00;;;;;;;;;;2110941;28;20487;-66
2023/09/18 03:06:50;;;;;;;1.20;1.10;;;;;;;;;;2108866;27;20067;-66
2023/09/18 03:08:10;;;;;;;1.50;1.17;;;;;;;;;;2108825;27;20028;-66
2023/09/18 03:09:29;;;;;;;6.07;1.20;;;;;;;;;;2108795;28;21103;-66
2023/09/18 03:10:48;;;;;;;1.58;1.17;;;;;;;;;;2109807;28;20449;-66
2023/09/18 03:12:07;;;;;;;2.33;1.08;;;;;;;;;;2108365;28;20488;-65
2023/09/18 03:13:27;;;;;;;1.20;1.00;;;;;;;;;;2111298;28;20020;-66
2023/09/18 03:14:46;;;;;;;1.60;1.20;;;;;;;;;;2109487;28;20039;-66
2023/09/18 03:16:06;;;;;;;3.47;1.20;;;;;;;;;;2110364;27;20023;-66
2023/09/18 03:17:26;;;;;;;1.45;1.10;;;;;;;;;;2110549;28;20103;-65
2023/09/18 03:18:45;;;;;;;3.67;1.30;;;;;;;;;;2103510;28;20103;-65
2023/09/18 03:20:05;;;;;;;1.42;1.10;;;;;;;;;;2107137;28;20028;-65
2023/09/18 03:21:24;;;;;;;1.73;1.33;;;;;;;;;;2111891;28;20024;-65
2023/09/18 03:22:43;;;;;;;2.28;1.48;;;;;;;;;;2110874;28;20039;-65
2023/09/18 03:24:02;;;;;;;3.60;1.50;;;;;;;;;;2108728;28;20028;-65
2023/09/18 03:25:21;;;;;;;1.25;1.08;;;;;;;;;;2106431;27;20051;-66
2023/09/18 03:26:40;;;;;;;2.45;1.63;;;;;;;;;;2107797;27;20037;-65
2023/09/18 03:27:59;;;;;;;1.20;1.10;;;;;;;;;;2109001;27;20032;-66
2023/09/18 03:29:18;;;;;;;5.35;1.00;;;;;;;;;;2110444;28;20469;-65
2023/09/18 03:30:37;;;;;;;4.13;1.30;;;;;;;;;;2109128;28;20484;-65
2023/09/18 03:31:58;;;;;;;1.67;1.27;;;;;;;;;;2100485;28;20032;-66
2023/09/18 03:33:16;;;;;;;1.13;1.02;;;;;;;;;;2107083;28;20043;-65
2023/09/18 03:34:36;;;;;;;4.70;1.45;;;;;;;;;;2109752;28;20055;-65
2023/09/18 03:35:57;;;;;;;3.22;1.35;;;;;;;;;;2100544;28;20492;-66
2023/09/18 03:37:16;;;;;;;2.78;1.42;;;;;;;;;;2107518;28;20023;-66
2023/09/18 03:38:36;;;;;;;1.63;1.33;;;;;;;;;;2109622;28;20422;-65
2023/09/18 03:39:55;;;;;;;4.45;1.55;;;;;;;;;;2108141;28;20495;-66
2023/09/18 03:41:14;;;;;;;1.70;1.50;;;;;;;;;;2109391;28;20120;-66
2023/09/18 03:42:33;;;;;;;1.63;1.33;;;;;;;;;;2109216;28;20024;-65
2023/09/18 03:43:52;;;;;;;1.92;1.27;;;;;;;;;;2109632;28;20046;-66
2023/09/18 03:45:11;;;;;;;1.95;1.52;;;;;;;;;;2108811;28;20400;-66
2023/09/18 03:46:31;;;;;;;1.67;1.38;;;;;;;;;;2108910;28;20036;-65
2023/09/18 03:47:51;;;;;;;1.52;1.42;;;;;;;;;;2109233;28;20047;-65
2023/09/18 03:49:09;;;;;;;1.70;1.60;;;;;;;;;;2110938;28;20028;-65
2023/09/18 03:50:28;;;;;;;1.75;1.60;;;;;;;;;;2109966;28;20031;-66
2023/09/18 03:51:47;;;;;;;1.55;1.45;;;;;;;;;;2109122;27;20036;-66
2023/09/18 03:53:06;;;;;;;2.92;1.20;;;;;;;;;;2110146;28;20036;-66
2023/09/18 03:54:25;;;;;;;2.17;1.00;;;;;;;;;;2109260;28;20028;-66
2023/09/18 03:55:44;;;;;;;1.45;1.13;;;;;;;;;;2104478;27;20028;-65
2023/09/18 03:57:04;;;;;;;4.30;1.40;;;;;;;;;;2105527;28;20036;-66
2023/09/18 03:58:23;;;;;;;2.33;1.48;;;;;;;;;;2103989;27;20031;-66
2023/09/18 03:59:41;;;;;;;3.45;1.58;;;;;;;;;;2108360;28;20028;-66
2023/09/18 04:01:00;;;;;;;2.83;1.55;;;;;;;;;;2105535;28;20020;-66
2023/09/18 04:02:21;;;;;;;3.88;1.65;;;;;;;;;;2105357;27;20031;-66
2023/09/18 04:03:40;;;;;;;2.10;1.30;;;;;;;;;;2106751;28;20055;-66
2023/09/18 04:04:59;;;;;;;1.52;1.40;;;;;;;;;;2106249;28;20065;-66
2023/09/18 04:06:20;;;;;;;2.85;1.30;;;;;;;;;;2109639;28;20037;-66
2023/09/18 04:07:39;;;;;;;4.20;1.25;;;;;;;;;;2108860;28;20023;-66
2023/09/18 04:08:59;;;;;;;3.28;1.30;;;;;;;;;;2109915;28;20039;-66
2023/09/18 04:10:22;;;;;;;1.35;1.30;;;;;;;;;;2107485;27;20084;-66
2023/09/18 04:11:41;;;;;;;2.20;1.23;;;;;;;;;;2108651;28;20036;-65
2023/09/18 04:13:00;;;;;;;1.88;1.30;;;;;;;;;;2101641;28;20063;-66
2023/09/18 04:14:19;;;;;;;1.00;0.90;;;;;;;;;;2106873;28;20032;-66
2023/09/18 04:15:38;;;;;;;1.80;1.13;;;;;;;;;;2106879;27;20048;-65
2023/09/18 04:16:57;;;;;;;1.35;1.00;;;;;;;;;;2109618;27;20069;-65
2023/09/18 04:18:16;;;;;;;3.42;1.50;;;;;;;;;;2106754;28;20491;-66
2023/09/18 04:19:35;;;;;;;2.78;1.40;;;;;;;;;;2104046;28;20036;-65
2023/09/18 04:20:54;;;;;;;2.60;1.33;;;;;;;;;;2104571;28;20028;-65
2023/09/18 04:22:13;;;;;;;1.50;1.17;;;;;;;;;;2108690;27;20040;-65
2023/09/18 04:23:33;;;;;;;1.95;1.52;;;;;;;;;;2106829;28;20031;-66
2023/09/18 04:24:53;;;;;;;1.25;1.15;;;;;;;;;;2106070;27;20036;-65
2023/09/18 04:26:14;;;;;;;2.17;1.30;;;;;;;;;;2107283;28;20032;-66
2023/09/18 04:27:33;;;;;;;3.25;1.10;;;;;;;;;;2107848;27;20020;-65
2023/09/18 04:28:52;;;;;;;3.17;1.38;;;;;;;;;;2107396;28;20031;-65
2023/09/18 04:30:11;;;;;;;2.28;1.38;;;;;;;;;;2108751;28;20396;-73
2023/09/18 04:31:30;;;;;;;1.42;1.33;;;;;;;;;;2109341;28;20036;-65
2023/09/18 04:32:51;;;;;;;2.45;1.45;;;;;;;;;;2108293;27;20035;-66
2023/09/18 04:34:11;;;;;;;1.30;1.20;;;;;;;;;;2107881;28;20099;-66
2023/09/18 04:35:31;;;;;;;2.63;1.40;;;;;;;;;;2110299;27;20023;-66
2023/09/18 04:36:50;;;;;;;2.17;1.40;;;;;;;;;;2108672;28;20055;-65
2023/09/18 04:38:15;;;;;;;1.30;1.20;;;;;;;;;;2108999;28;20131;-66
2023/09/18 04:39:34;;;;;;;2.10;1.50;;;;;;;;;;2106598;28;20020;-64
2023/09/18 04:40:59;;;;;;;1.67;1.55;;;;;;;;;;2107636;28;20031;-66
2023/09/18 04:42:18;;;;;;;1.67;1.25;;;;;;;;;;2109296;28;20056;-66
2023/09/18 04:43:41;;;;;;;3.38;1.70;;;;;;;;;;2109412;27;20032;-65
2023/09/18 04:44:59;;;;;;;4.28;2.75;;;;;;;;;;2110179;27;20484;-66
2023/09/18 04:46:18;;;;;;;3.47;1.48;;;;;;;;;;2109421;28;20027;-65
2023/09/18 04:47:37;;;;;;;3.67;2.20;;;;;;;;;;2109405;28;20504;-66
2023/09/18 04:48:56;;;;;;;3.00;1.52;;;;;;;;;;2105387;27;20415;-65
2023/09/18 04:50:15;;;;;;;4.38;1.67;;;;;;;;;;2104223;28;20166;-66
2023/09/18 04:51:34;;;;;;;2.53;1.58;;;;;;;;;;2107808;28;20031;-65
2023/09/18 04:52:54;;;;;;;1.60;1.45;;;;;;;;;;2108119;27;20028;-66
2023/09/18 04:54:15;;;;;;;2.80;1.48;;;;;;;;;;2105193;28;20032;-65
2023/09/18 04:55:34;;;;;;;2.63;1.20;;;;;;;;;;2107518;28;20502;-65
2023/09/18 04:56:54;;;;;;;1.45;1.35;;;;;;;;;;2108194;28;20019;-65
2023/09/18 04:58:13;;;;;;;3.05;1.50;;;;;;;;;;2106629;28;20024;-65
2023/09/18 04:59:32;;;;;;;4.80;1.48;;;;;;;;;;2109936;28;20028;-65
2023/09/18 05:00:58;;;;;;;4.35;1.67;;;;;;;;;;2110018;28;20053;-65
2023/09/18 05:02:17;;;;;;;8.50;2.78;;;;;;;;;;2108505;28;20107;-65
2023/09/18 05:03:36;;;;;;;8.63;3.45;;;;;;;;;;2108215;28;20055;-65
2023/09/18 05:04:55;;;;;;;6.97;3.17;;;;;;;;;;2109176;28;20036;-65
2023/09/18 05:06:15;;;;;;;5.80;2.65;;;;;;;;;;2108798;28;20135;-65
2023/09/18 05:07:34;;;;;;;6.50;2.60;;;;;;;;;;2108141;28;20047;-65
2023/09/18 05:08:54;;;;;;;6.43;2.60;;;;;;;;;;2098162;28;20440;-65
2023/09/18 05:10:13;;;;;;;5.28;2.40;;;;;;;;;;2101355;28;20286;-65
2023/09/18 05:11:31;;;;;;;3.95;2.30;;;;;;;;;;2105202;28;20032;-65
2023/09/18 05:12:58;;;;;;;5.85;2.78;;;;;;;;;;2099436;28;20229;-65
2023/09/18 05:14:17;;;;;;;9.35;3.50;;;;;;;;;;2106027;28;20481;-65
2023/09/18 05:15:37;;;;;;;5.40;3.03;;;;;;;;;;2108799;28;20472;-65
2023/09/18 05:16:56;;;;;;;7.13;3.47;;;;;;;;;;2109727;28;20045;-65
2023/09/18 05:18:15;;;;;;;10.68;3.30;;;;;;;;;;2107650;28;20086;-65
2023/09/18 05:19:34;;;;;;;7.35;2.70;;;;;;;;;;2108840;28;20024;-65
2023/09/18 05:20:53;;;;;;;11.52;2.80;;;;;;;;;;2107974;28;20389;-66
2023/09/18 05:22:12;;;;;;;10.80;3.15;;;;;;;;;;2108536;28;20028;-65
2023/09/18 05:23:31;;;;;;;10.00;3.03;;;;;;;;;;2107973;28;20036;-65
2023/09/18 05:24:51;;;;;;;7.22;2.72;;;;;;;;;;2108885;28;20392;-65
2023/09/18 05:26:11;;;;;;;6.13;2.20;;;;;;;;;;2108886;28;20044;-65
2023/09/18 05:27:30;;;;;;;5.18;2.03;;;;;;;;;;2110006;28;20141;-65
2023/09/18 05:28:50;;;;;;;5.65;2.10;;;;;;;;;;2106085;28;20391;-65
2023/09/18 05:30:16;;;;;;;2.15;1.67;;;;;;;;;;2100963;28;20032;-62
2023/09/18 05:31:35;;;;;;;5.80;4.30;;;;;;;;;;2106963;28;20036;-63
2023/09/18 05:32:54;;;;;;;4.65;2.78;;;;;;;;;;2109261;28;20027;-63
2023/09/18 05:34:13;;;;;;;6.22;3.20;;;;;;;;;;2108914;28;20032;-63
2023/09/18 05:35:32;;;;;;;8.85;6.15;;;;;;;;;;2104511;28;20182;-63
2023/09/18 05:36:51;;;;;;;3.53;2.80;;;;;;;;;;2107613;28;20119;-63
2023/09/18 05:38:11;;;;;;;5.53;3.45;;;;;;;;;;2102085;28;20500;-63
2023/09/18 05:39:30;;;;;;;8.68;6.03;;;;;;;;;;2108252;28;20032;-63
2023/09/18 05:40:49;;;;;;;6.90;4.78;;;;;;;;;;2097910;28;20025;-62
2023/09/18 05:42:07;;;;;;;4.68;2.20;;;;;;;;;;2104335;28;20036;-63
2023/09/18 05:43:26;;;;;;;4.22;2.17;;;;;;;;;;2107369;28;20039;-63
2023/09/18 05:44:46;;;;;;;4.13;2.15;;;;;;;;;;2107222;28;20067;-63
2023/09/18 05:46:05;;;;;;;3.10;2.08;;;;;;;;;;2108294;28;20023;-63
2023/09/18 05:47:24;;;;;;;2.72;1.90;;;;;;;;;;2107520;28;20028;-62
2023/09/18 05:48:43;;;;;;;7.80;2.05;;;;;;;;;;2107076;28;20032;-62
2023/09/18 05:50:03;;;;;;;2.47;1.70;;;;;;;;;;2106818;28;20036;-62
2023/09/18 05:51:23;;;;;;;1.95;1.60;;;;;;;;;;2105495;28;20040;-63
2023/09/18 05:52:43;;;;;;;4.13;1.27;;;;;;;;;;2098751;28;20043;-62
2023/09/18 05:54:02;;;;;;;1.83;1.67;;;;;;;;;;2105435;28;20027;-63
2023/09/18 05:55:21;;;;;;;2.05;1.60;;;;;;;;;;2107920;28;20024;-63
2023/09/18 05:56:40;;;;;;;3.80;1.73;;;;;;;;;;2096752;28;20056;-63
2023/09/18 05:57:59;;;;;;;2.28;1.60;;;;;;;;;;2105562;28;20391;-62
2023/09/18 05:59:20;;;;;;;1.95;1.40;;;;;;;;;;2108467;28;20024;-62
2023/09/18 06:00:39;;;;;;;5.00;1.70;;;;;;;;;;2102321;28;20036;-64
2023/09/18 06:01:58;;;;;;;1.45;1.35;;;;;;;;;;2108033;28;20106;-62
2023/09/18 06:03:19;;;;;;;3.20;1.60;;;;;;;;;;2107329;28;20055;-62
2023/09/18 06:04:38;;;;;;;2.28;1.40;;;;;;;;;;2108260;28;20061;-63
2023/09/18 06:05:57;;;;;;;2.90;1.30;;;;;;;;;;2103128;28;20025;-65
2023/09/18 06:07:16;;;;;;;1.95;1.27;;;;;;;;;;2107528;28;20414;-63
2023/09/18 06:08:35;;;;;;;3.33;1.35;;;;;;;;;;2111445;28;20040;-62
2023/09/18 06:09:54;;;;;;;2.25;1.15;;;;;;;;;;2109440;28;20031;-63
2023/09/18 06:11:13;;;;;;;8.57;1.63;;;;;;;;;;2111598;28;20052;-63
2023/09/18 06:12:32;;;;;;;2.58;1.45;;;;;;;;;;2110362;28;20036;-62
2023/09/18 06:13:51;;;;;;;2.22;1.27;;;;;;;;;;2110932;28;20020;-63
2023/09/18 06:15:11;;;;;;;2.00;1.23;;;;;;;;;;2111872;28;20107;-63
2023/09/18 06:16:30;;;;;;;2.50;1.50;;;;;;;;;;2111679;27;20019;-63
2023/09/18 06:17:49;;;;;;;1.50;1.40;;;;;;;;;;2103261;28;20032;-62
2023/09/18 06:19:08;;;;;;;1.88;1.10;;;;;;;;;;2103023;28;20024;-64
2023/09/18 06:20:27;;;;;;;1.30;1.20;;;;;;;;;;2107237;28;20481;-64
2023/09/18 06:21:46;;;;;;;2.03;1.50;;;;;;;;;;2110275;28;20028;-63
2023/09/18 06:23:05;;;;;;;2.80;1.30;;;;;;;;;;2100229;28;20028;-62
2023/09/18 06:24:24;;;;;;;4.85;1.30;;;;;;;;;;2107624;28;20032;-63
2023/09/18 06:25:43;;;;;;;2.90;1.40;;;;;;;;;;2110996;27;20036;-62
2023/09/18 06:27:04;;;;;;;3.15;1.15;;;;;;;;;;2110444;28;20111;-63
2023/09/18 06:28:23;;;;;;;1.80;1.00;;;;;;;;;;2110970;27;20036;-63
2023/09/18 06:29:42;;;;;;;3.47;1.45;;;;;;;;;;2102180;28;20056;-63
2023/09/18 06:31:01;;;;;;;2.25;1.10;;;;;;;;;;2107754;28;20020;-62
2023/09/18 06:32:21;;;;;;;2.75;1.30;;;;;;;;;;2110575;28;20061;-63
2023/09/18 06:33:40;;;;;;;3.13;0.98;;;;;;;;;;2105241;28;20503;-63
2023/09/18 06:34:59;;;;;;;3.13;1.00;;;;;;;;;;2107720;28;20032;-63
2023/09/18 06:36:19;;;;;;;4.00;0.93;;;;;;;;;;2110975;28;20487;-62
2023/09/18 06:37:38;;;;;;;5.38;1.10;;;;;;;;;;2110050;28;20051;-63
2023/09/18 06:38:56;;;;;;;1.08;0.98;;;;;;;;;;2104375;28;20039;-62
2023/09/18 06:40:16;;;;;;;2.90;0.93;;;;;;;;;;2106354;28;20402;-62
2023/09/18 06:41:35;;;;;;;8.35;1.40;;;;;;;;;;2110536;28;20484;-63
2023/09/18 06:42:58;;;;;;;1.60;0.80;;;;;;;;;;2110759;28;20032;-62
2023/09/18 06:44:17;;;;;;;;;;;;;;;;;;2111080;27;20028;-62
2023/09/18 06:45:37;;;;;;;2.08;0.93;;;;;;;;;;2111276;28;19908;-62
2023/09/18 06:46:56;;;;;;;3.45;0.90;;;;;;;;;;2110633;28;20032;-63
2023/09/18 06:48:16;;;;;;;10.57;1.30;;;;;;;;;;2109679;28;20907;-62
2023/09/18 06:49:35;;;;;;;2.55;0.93;;;;;;;;;;2109611;27;20027;-63
2023/09/18 06:50:55;;;;;;;1.88;0.98;;;;;;;;;;2111010;28;20617;-62
2023/09/18 06:52:14;;;;;;;1.02;0.80;;;;;;;;;;2109649;28;20027;-63
2023/09/18 06:53:33;;;;;;;2.00;0.77;;;;;;;;;;2102531;28;20439;-63
2023/09/18 06:54:52;;;;;;;3.53;0.70;;;;;;;;;;2106418;28;20024;-64
2023/09/18 06:56:12;;;;;;;2.60;1.15;;;;;;;;;;2111178;27;20447;-63
2023/09/18 06:57:31;;;;;;;1.83;0.90;;;;;;;;;;2109678;27;20107;-63
2023/09/18 06:58:51;;;;;;;1.80;0.90;;;;;;;;;;2111228;28;20024;-62
2023/09/18 07:00:10;;;;;;;4.53;0.90;;;;;;;;;;2111582;28;20070;-63
2023/09/18 07:01:31;;;;;;;0.93;0.70;;;;;;;;;;2110093;28;21010;-63
2023/09/18 07:02:50;;;;;;;3.28;0.90;;;;;;;;;;2109256;28;20489;-63
2023/09/18 07:04:09;;;;;;;3.60;0.88;;;;;;;;;;2109329;27;20511;-62
2023/09/18 07:05:28;;;;;;;1.70;0.90;;;;;;;;;;2109797;28;20102;-63
2023/09/18 07:06:47;;;;;;;1.48;0.70;;;;;;;;;;2112088;28;20443;-63
2023/09/18 07:08:11;;;;;;;3.83;0.95;;;;;;;;;;2108614;27;20039;-63
2023/09/18 07:09:30;;;;;;;2.08;0.90;;;;;;;;;;2105968;27;20434;-64
2023/09/18 07:10:50;;;;;;;2.78;0.88;;;;;;;;;;2110224;28;20108;-63
2023/09/18 07:12:09;;;;;;;2.05;0.70;;;;;;;;;;2110996;28;20044;-62
2023/09/18 07:13:28;;;;;;;3.90;0.60;;;;;;;;;;2109437;28;20504;-63
2023/09/18 07:14:47;;;;;;;1.80;0.82;;;;;;;;;;2108497;28;20035;-62
2023/09/18 07:16:06;;;;;;;3.25;0.90;;;;;;;;;;2110534;28;20023;-63
2023/09/18 07:17:25;;;;;;;4.18;0.60;;;;;;;;;;2110723;28;20388;-62
2023/09/18 07:18:44;;;;;;;2.80;0.80;;;;;;;;;;2107714;27;20032;-63
2023/09/18 07:20:09;;;;;;;1.60;0.70;;;;;;;;;;2110104;28;20051;-63
2023/09/18 07:21:29;;;;;;;2.33;0.80;;;;;;;;;;2107595;28;20029;-62
2023/09/18 07:22:48;;;;;;;3.00;0.68;;;;;;;;;;2107720;27;20036;-63
2023/09/18 07:24:07;;;;;;;1.85;0.70;;;;;;;;;;2109206;28;20118;-64
2023/09/18 07:25:26;;;;;;;4.07;0.90;;;;;;;;;;2098460;28;20041;-63
2023/09/18 07:26:46;;;;;;;1.55;0.63;;;;;;;;;;2105250;28;20028;-63
2023/09/18 07:28:08;;;;;;;6.57;1.10;;;;;;;;;;2108942;28;20028;-63
2023/09/18 07:29:27;;;;;;;2.30;0.70;;;;;;;;;;2107814;28;20032;-64
2023/09/18 07:30:46;;;;;;;2.67;0.80;;;;;;;;;;2107654;28;20146;-63
2023/09/18 07:32:05;;;;;;;2.95;0.98;;;;;;;;;;2105184;28;20019;-64
2023/09/18 07:33:24;;;;;;;2.25;0.85;;;;;;;;;;2108988;28;20020;-63
2023/09/18 07:34:45;;;;;;;1.95;1.00;;;;;;;;;;2110067;27;20036;-63
2023/09/18 07:36:04;;;;;;;3.90;0.80;;;;;;;;;;2109135;27;20028;-63
2023/09/18 07:37:23;;;;;;;3.28;1.23;;;;;;;;;;2110571;27;20384;-63
2023/09/18 07:38:44;;;;;;;0.55;0.55;;;;;;;;;;2110242;27;20036;-63
2023/09/18 07:40:04;;;;;;;4.05;0.70;;;;;;;;;;2110306;28;20434;-63
2023/09/18 07:41:23;;;;;;;9.05;1.02;;;;;;;;;;2110240;28;20024;-63
2023/09/18 07:42:43;;;;;;;4.72;1.05;;;;;;;;;;2109888;27;20156;-63
2023/09/18 07:44:02;;;;;;;6.97;0.90;;;;;;;;;;2109130;28;20020;-63
2023/09/18 07:45:23;;;;;;;8.60;0.85;;;;;;;;;;2108479;27;20023;-63
2023/09/18 07:46:42;;;;;;;4.90;0.77;;;;;;;;;;2105982;28;20036;-63
2023/09/18 07:48:01;;;;;;;2.67;0.77;;;;;;;;;;2111270;28;20024;-63
2023/09/18 07:49:20;;;;;;;3.10;0.90;;;;;;;;;;2110641;27;20035;-63
2023/09/18 07:50:43;;;;;;;6.35;0.82;;;;;;;;;;2109155;28;20027;-63
2023/09/18 07:52:02;;;;;;;2.72;0.85;;;;;;;;;;2109502;28;20023;-63
2023/09/18 07:53:21;;;;;;;1.65;0.70;;;;;;;;;;2108812;28;20024;-63
2023/09/18 07:54:40;;;;;;;1.23;0.65;;;;;;;;;;2108011;28;20024;-63
2023/09/18 07:55:59;;;;;;;2.75;0.43;;;;;;;;;;2108634;28;20024;-63
2023/09/18 07:57:19;;;;;;;6.88;1.10;;;;;;;;;;2104251;28;20111;-63